createdAt,value
2023-03-28T00:01:59.373Z,1.50
2023-03-28T00:06:02.462Z,1.30
2023-03-28T00:10:06.421Z,1.30
2023-03-28T00:14:08.540Z,1.30
2023-03-28T00:18:11.697Z,1.30
2023-03-28T00:22:14.091Z,1.20
2023-03-28T00:26:15.939Z,1.10
2023-03-28T00:30:17.790Z,1.10
2023-03-28T00:34:20.659Z,0.70
2023-03-28T00:38:22.839Z,0.70
2023-03-28T00:42:24.777Z,0.40
2023-03-28T00:46:39.028Z,0.50
2023-03-28T00:50:47.029Z,0.50
2023-03-28T00:54:49.138Z,0.40
2023-03-28T00:58:53.201Z,0.30
2023-03-28T01:02:58.239Z,0.30
2023-03-28T01:07:00.412Z,0.50
2023-03-28T01:11:03.225Z,0.50
2023-03-28T01:15:05.731Z,0.70
2023-03-28T01:19:51.815Z,-0.10
2023-03-28T01:24:24.904Z,0.20
2023-03-28T01:28:35.800Z,0.20
2023-03-28T01:33:02.274Z,0.30
2023-03-28T01:37:19.393Z,0.50
2023-03-28T01:42:01.332Z,0.40
2023-03-28T01:46:15.437Z,0.30
2023-03-28T01:50:34.372Z,0.40
2023-03-28T01:55:05.471Z,0.50
2023-03-28T01:59:29.963Z,0.70
2023-03-28T02:04:20.504Z,0.90
2023-03-28T02:08:37.404Z,0.90
2023-03-28T02:13:24.810Z,1.10
2023-03-28T02:18:14.914Z,1.10
2023-03-28T02:22:38.568Z,1.00
2023-03-28T02:27:00.797Z,1.00
2023-03-28T02:31:11.355Z,0.60
2023-03-28T02:35:14.558Z,0.80
2023-03-28T02:39:19.185Z,0.90
2023-03-28T02:43:46.006Z,1.00
2023-03-28T02:48:32.179Z,0.80
2023-03-28T02:52:52.577Z,0.80
2023-03-28T02:57:10.416Z,1.00
2023-03-28T03:01:18.435Z,1.20
2023-03-28T03:05:21.718Z,1.20
2023-03-28T03:09:23.725Z,1.00
2023-03-28T03:13:25.781Z,0.90
2023-03-28T03:17:28.878Z,1.00
2023-03-28T03:21:31.037Z,0.90
2023-03-28T03:25:34.609Z,0.80
2023-03-28T03:30:07.075Z,0.70
2023-03-28T03:34:27.208Z,0.50
2023-03-28T03:38:32.344Z,0.60
2023-03-28T03:42:36.301Z,0.50
2023-03-28T03:46:39.346Z,0.40
2023-03-28T03:50:41.924Z,0.50
2023-03-28T03:54:50.545Z,0.60
2023-03-28T03:58:53.148Z,0.50
2023-03-28T04:02:57.410Z,0.50
2023-03-28T04:07:02.344Z,0.50
2023-03-28T04:11:05.386Z,0.50
2023-03-28T04:15:12.920Z,0.40
2023-03-28T04:19:15.660Z,0.30
2023-03-28T04:23:18.562Z,0.30
2023-03-28T04:27:21.304Z,0.20
2023-03-28T04:31:29.497Z,-0.10
2023-03-28T04:36:02.838Z,0.00
2023-03-28T04:40:12.175Z,0.10
2023-03-28T04:44:21.928Z,0.10
2023-03-28T04:48:31.895Z,0.00
2023-03-28T04:52:34.261Z,0.00
2023-03-28T04:56:36.603Z,-0.30
2023-03-28T05:00:39.377Z,-0.50
2023-03-28T05:04:42.370Z,-0.30
2023-03-28T05:08:45.087Z,-0.30
2023-03-28T05:12:47.762Z,-0.20
2023-03-28T05:16:51.523Z,-0.10
2023-03-28T05:21:21.463Z,-0.20
2023-03-28T05:25:26.327Z,-0.20
2023-03-28T05:29:30.429Z,-0.20
2023-03-28T05:33:32.472Z,-0.20
2023-03-28T05:37:35.468Z,-0.20
2023-03-28T05:41:37.364Z,-0.10
2023-03-28T05:45:39.309Z,-0.10
2023-03-28T05:49:47.411Z,-0.10
2023-03-28T05:53:49.862Z,0.00
2023-03-28T05:57:52.053Z,0.10
2023-03-28T06:01:55.442Z,0.10
2023-03-28T06:05:57.995Z,0.10
2023-03-28T06:10:03.339Z,0.10
2023-03-28T06:14:06.790Z,-0.10
2023-03-28T06:18:09.699Z,-0.20
2023-03-28T06:22:18.659Z,0.10
2023-03-28T06:26:25.707Z,0.10
2023-03-28T06:30:27.663Z,-0.20
2023-03-28T06:34:30.095Z,-0.10
2023-03-28T06:38:36.206Z,0.40
2023-03-28T06:42:39.933Z,0.80
2023-03-28T06:47:08.132Z,0.70
2023-03-28T06:51:11.979Z,0.80
2023-03-28T06:55:14.540Z,0.70
2023-03-28T06:59:16.893Z,0.80
2023-03-28T07:03:23.303Z,0.80
2023-03-28T07:07:25.600Z,1.00
2023-03-28T07:11:27.533Z,0.80
2023-03-28T07:15:29.605Z,0.90
2023-03-28T07:19:32.274Z,1.00
2023-03-28T07:23:34.344Z,0.40
2023-03-28T07:27:36.477Z,0.70
2023-03-28T07:31:38.682Z,0.90
2023-03-28T07:35:41.139Z,0.60
2023-03-28T07:39:47.909Z,1.20
2023-03-28T07:43:52.901Z,1.20
2023-03-28T07:47:54.968Z,1.20
2023-03-28T07:51:57.954Z,1.50
2023-03-28T07:56:00.282Z,1.70
2023-03-28T08:00:13.249Z,1.40
2023-03-28T08:04:15.208Z,1.50
2023-03-28T08:08:30.291Z,1.30
2023-03-28T08:12:54.820Z,1.30
2023-03-28T08:16:56.967Z,1.40
2023-03-28T08:21:01.941Z,1.50
2023-03-28T08:25:07.816Z,1.80
2023-03-28T08:29:11.527Z,1.90
2023-03-28T08:33:14.061Z,2.00
2023-03-28T08:37:16.959Z,2.10
2023-03-28T08:41:57.874Z,2.40
2023-03-28T08:46:01.374Z,0.70
2023-03-28T08:50:15.522Z,1.40
2023-03-28T08:54:31.585Z,1.50
2023-03-28T08:58:42.469Z,1.70
2023-03-28T09:02:44.783Z,2.00
2023-03-28T09:06:53.513Z,1.70
2023-03-28T09:11:03.310Z,1.90
2023-03-28T09:15:24.231Z,2.00
2023-03-28T09:19:49.325Z,2.00
2023-03-28T09:24:26.456Z,1.10
2023-03-28T09:28:52.152Z,1.60
2023-03-28T09:32:58.389Z,2.10
2023-03-28T09:37:12.805Z,1.90
2023-03-28T09:41:25.973Z,1.80
2023-03-28T09:46:03.075Z,1.90
2023-03-28T09:50:12.955Z,2.60
2023-03-28T09:54:28.724Z,2.00
2023-03-28T09:58:50.061Z,2.30
2023-03-28T10:03:02.773Z,2.50
2023-03-28T10:07:11.324Z,3.00
2023-03-28T10:11:23.841Z,2.70
2023-03-28T10:15:41.982Z,2.00
2023-03-28T10:19:49.957Z,2.10
2023-03-28T10:24:07.308Z,2.20
2023-03-28T10:28:30.490Z,2.70
2023-03-28T10:32:32.829Z,2.60
2023-03-28T10:37:00.666Z,2.40
2023-03-28T10:41:28.266Z,2.40
2023-03-28T10:46:00.994Z,3.10
2023-03-28T10:50:37.008Z,3.70
2023-03-28T10:55:09.899Z,4.10
2023-03-28T10:59:37.964Z,3.10
2023-03-28T11:03:55.210Z,3.00
2023-03-28T11:08:34.916Z,3.20
2023-03-28T11:12:58.531Z,3.20
2023-03-28T11:17:20.338Z,3.70
2023-03-28T11:21:37.436Z,3.60
2023-03-28T11:25:42.651Z,3.80
2023-03-28T11:30:32.373Z,3.90
2023-03-28T11:35:18.130Z,4.10
2023-03-28T11:39:45.711Z,4.20
2023-03-28T11:43:54.480Z,4.20
2023-03-28T11:48:12.668Z,4.40
2023-03-28T11:52:35.531Z,4.60
2023-03-28T11:57:00.615Z,4.40
2023-03-28T12:01:29.693Z,5.00
2023-03-28T12:05:36.627Z,5.00
2023-03-28T12:09:57.659Z,4.50
2023-03-28T12:14:33.088Z,4.80
2023-03-28T12:18:51.484Z,4.90
2023-03-28T12:23:22.410Z,4.90
2023-03-28T12:27:57.106Z,4.70
2023-03-28T12:32:42.252Z,3.90
2023-03-28T12:37:12.251Z,4.20
2023-03-28T12:41:23.376Z,5.10
2023-03-28T12:45:38.893Z,4.60
2023-03-28T12:49:58.760Z,4.80
2023-03-28T12:54:07.571Z,5.30
2023-03-28T12:58:12.712Z,5.60
2023-03-28T13:02:51.788Z,5.70
2023-03-28T13:07:12.942Z,5.70
2023-03-28T13:11:39.804Z,5.80
2023-03-28T13:16:09.273Z,5.40
2023-03-28T13:20:26.257Z,5.40
2023-03-28T13:24:29.814Z,5.60
2023-03-28T13:28:51.541Z,5.90
2023-03-28T13:32:59.788Z,5.90
2023-03-28T13:37:25.516Z,6.40
2023-03-28T13:41:42.744Z,6.30
2023-03-28T13:45:44.808Z,6.10
2023-03-28T13:50:04.261Z,5.70
2023-03-28T13:54:09.344Z,5.70
2023-03-28T13:58:13.397Z,5.90
2023-03-28T14:02:31.886Z,6.20
2023-03-28T14:06:40.829Z,5.90
2023-03-28T14:10:45.542Z,5.50
2023-03-28T14:14:57.765Z,5.50
2023-03-28T14:19:03.039Z,5.60
2023-03-28T14:23:06.435Z,5.40
2023-03-28T14:27:13.934Z,5.80
2023-03-28T14:31:32.438Z,5.90
2023-03-28T14:35:36.724Z,5.90
2023-03-28T14:39:39.052Z,6.60
2023-03-28T14:43:41.221Z,6.80
2023-03-28T14:47:44.164Z,7.10
2023-03-28T14:51:53.291Z,7.10
2023-03-28T14:56:02.239Z,7.10
2023-03-28T15:00:12.721Z,7.10
2023-03-28T15:04:16.627Z,7.20
2023-03-28T15:08:30.780Z,6.80
2023-03-28T15:12:36.446Z,6.80
2023-03-28T15:16:44.173Z,6.00
2023-03-28T15:20:52.048Z,6.30
2023-03-28T15:24:56.223Z,7.10
2023-03-28T15:28:58.748Z,7.30
2023-03-28T15:33:04.100Z,7.00
2023-03-28T15:37:07.226Z,6.90
2023-03-28T15:41:19.268Z,6.90
2023-03-28T15:45:21.785Z,7.00
2023-03-28T15:49:24.089Z,7.00
2023-03-28T15:53:29.614Z,6.80
2023-03-28T15:57:31.958Z,6.90
2023-03-28T16:01:34.325Z,6.70
2023-03-28T16:05:37.836Z,6.50
2023-03-28T16:09:43.070Z,6.00
2023-03-28T16:13:46.091Z,6.80
2023-03-28T16:18:06.889Z,6.50
2023-03-28T16:22:21.106Z,6.20
2023-03-28T16:26:23.088Z,6.60
2023-03-28T16:30:45.918Z,6.80
2023-03-28T16:34:48.516Z,6.80
2023-03-28T16:38:50.411Z,6.40
2023-03-28T16:42:52.639Z,6.60
2023-03-28T16:46:55.282Z,6.50
2023-03-28T16:51:00.170Z,6.40
2023-03-28T16:55:01.975Z,5.70
2023-03-28T16:59:05.649Z,6.20
2023-03-28T17:03:07.631Z,6.10
2023-03-28T17:07:09.742Z,6.00
2023-03-28T17:11:12.978Z,5.30
2023-03-28T17:15:14.962Z,5.80
2023-03-28T17:19:19.255Z,5.70
2023-03-28T17:23:21.222Z,5.60
2023-03-28T17:27:23.475Z,5.50
2023-03-28T17:31:25.725Z,5.80
2023-03-28T17:35:27.899Z,6.10
2023-03-28T17:39:30.036Z,6.30
2023-03-28T17:43:32.132Z,6.20
2023-03-28T17:47:34.487Z,6.20
2023-03-28T17:51:37.062Z,6.00
2023-03-28T17:55:39.053Z,6.10
2023-03-28T17:59:41.703Z,5.90
2023-03-28T18:03:45.739Z,5.80
2023-03-28T18:07:58.178Z,5.80
2023-03-28T18:12:00.274Z,5.80
2023-03-28T18:16:04.618Z,5.70
2023-03-28T18:20:09.230Z,5.60
2023-03-28T18:24:11.951Z,5.50
2023-03-28T18:28:14.128Z,5.40
2023-03-28T18:32:16.598Z,5.40
2023-03-28T18:36:18.570Z,5.30
2023-03-28T18:40:20.498Z,5.20
2023-03-28T18:44:22.318Z,5.30
2023-03-28T18:48:24.699Z,5.40
2023-03-28T18:52:28.342Z,5.20
2023-03-28T18:56:32.823Z,5.10
2023-03-28T19:00:34.701Z,5.00
2023-03-28T19:04:37.709Z,5.10
2023-03-28T19:08:40.433Z,5.10
2023-03-28T19:12:42.301Z,5.00
2023-03-28T19:16:44.267Z,5.10
2023-03-28T19:20:50.992Z,5.00
2023-03-28T19:24:53.276Z,4.80
2023-03-28T19:28:55.442Z,4.80
2023-03-28T19:32:57.953Z,4.70
2023-03-28T19:37:00.311Z,4.80
2023-03-28T19:45:07.950Z,4.60
2023-03-28T19:49:11.372Z,4.50
2023-03-28T19:53:13.339Z,4.90
2023-03-28T19:57:15.554Z,4.80
2023-03-28T20:01:18.036Z,4.80
2023-03-28T20:05:19.953Z,4.80
2023-03-28T20:09:22.258Z,4.80
2023-03-28T20:13:24.466Z,4.90
2023-03-28T20:17:26.736Z,4.90
2023-03-28T20:21:28.684Z,5.00
2023-03-28T20:25:33.071Z,4.90
2023-03-28T20:29:36.364Z,4.90
2023-03-28T20:33:38.529Z,5.00
2023-03-28T20:37:40.569Z,5.00
2023-03-28T20:41:43.303Z,5.00
2023-03-28T20:45:49.900Z,4.90
2023-03-28T20:49:56.769Z,4.60
2023-03-28T20:54:00.445Z,4.70
2023-03-28T20:58:02.588Z,4.70
2023-03-28T21:02:05.175Z,4.60
2023-03-28T21:06:07.776Z,4.70
2023-03-28T21:10:10.141Z,4.70
2023-03-28T21:14:13.942Z,4.60
2023-03-28T21:18:16.590Z,4.80
2023-03-28T21:22:20.621Z,4.70
2023-03-28T21:26:23.424Z,4.80
2023-03-28T21:30:25.302Z,4.90
2023-03-28T21:34:33.347Z,4.80
2023-03-28T21:38:35.494Z,4.40
2023-03-28T21:42:37.952Z,4.50
2023-03-28T21:46:39.994Z,4.70
2023-03-28T21:50:42.310Z,4.60
2023-03-28T21:54:44.211Z,4.70
2023-03-28T21:58:46.132Z,4.00
2023-03-28T22:02:48.122Z,3.10
2023-03-28T22:06:50.029Z,3.90
2023-03-28T22:10:58.461Z,4.30
2023-03-28T22:15:01.626Z,4.60
2023-03-28T22:19:05.898Z,4.80
2023-03-28T22:23:08.915Z,5.00
2023-03-28T22:27:10.944Z,4.70
2023-03-28T22:31:13.691Z,3.80
2023-03-28T22:35:15.583Z,3.50
2023-03-28T22:39:17.894Z,4.10
2023-03-28T22:43:19.789Z,4.50
2023-03-28T22:47:21.647Z,4.70
2023-03-28T22:51:27.605Z,4.40
2023-03-28T22:55:29.684Z,4.50
2023-03-28T22:59:36.531Z,5.00
2023-03-28T23:03:38.701Z,4.90
2023-03-28T23:07:43.191Z,3.90
2023-03-28T23:11:45.305Z,3.50
2023-03-28T23:15:47.188Z,3.90
2023-03-28T23:19:50.222Z,4.00
2023-03-28T23:23:53.314Z,4.50
2023-03-28T23:27:55.206Z,4.70
2023-03-28T23:31:57.282Z,4.40
2023-03-28T23:35:59.175Z,4.00
2023-03-28T23:40:01.093Z,3.90
2023-03-28T23:44:03.255Z,3.50
2023-03-28T23:48:06.562Z,3.50
2023-03-28T23:52:09.878Z,3.40
2023-03-28T23:56:11.705Z,3.20
